Orange Beach, Alabama
Current Conditions -  °F | °C
As of 1:15 PM on Friday 21 Nov 2014 (Local Time) from KJKA Reporting Station
Clear Clear  
Wind Chill: 67°   Ceiling: Unl
Heat Index: 67°   Visibility: 10mi
Dew Point: 44°   Wind: 14mph
Humidity: 43%   Direction: 90°E
Pressure: 30.28"   Gusts: 18mph
Location:  30.29°N, 87.57°W
Report Text: KJKA 211915Z AUTO 09012G16KT 10SM CLR 20/07 A3028 RMK AO2 T01970067
Loading
Personal Weather Stations






























Interactive Weather Map New forecast layout! Learn more

10-Day Weather Forecast

Advertisements
Track Severe Weather on mobile